createdAt,value
2023-03-17T00:00:32.886Z,7.70
2023-03-17T00:03:01.667Z,7.90
2023-03-17T00:05:39.576Z,8.20
2023-03-17T00:08:20.522Z,8.60
2023-03-17T00:10:52.630Z,8.80
2023-03-17T00:13:21.303Z,8.30
2023-03-17T00:16:00.445Z,7.30
2023-03-17T00:18:30.935Z,8.40
2023-03-17T00:21:00.215Z,9.80
2023-03-17T00:23:28.637Z,9.40
2023-03-17T00:25:57.624Z,9.60
2023-03-17T00:28:27.392Z,8.60
2023-03-17T00:30:58.751Z,8.40
2023-03-17T00:33:28.641Z,9.00
2023-03-17T00:35:57.678Z,8.30
2023-03-17T00:38:26.662Z,10.30
2023-03-17T00:40:57.695Z,11.50
2023-03-17T00:43:26.627Z,10.80
2023-03-17T00:45:55.914Z,13.60
2023-03-17T00:48:26.176Z,12.00
2023-03-17T00:50:54.714Z,11.30
2023-03-17T00:53:23.714Z,12.10
2023-03-17T00:55:52.545Z,11.60
2023-03-17T00:58:27.322Z,11.40
2023-03-17T01:00:55.950Z,12.60
2023-03-17T01:03:25.784Z,15.70
2023-03-17T01:05:54.705Z,15.40
2023-03-17T01:08:25.805Z,15.60
2023-03-17T01:10:54.945Z,15.00
2023-03-17T01:13:28.754Z,17.20
2023-03-17T01:15:57.998Z,18.70
2023-03-17T01:18:27.408Z,15.20
2023-03-17T01:20:55.799Z,12.70
2023-03-17T01:23:24.486Z,10.80
2023-03-17T01:25:54.619Z,11.20
2023-03-17T01:28:23.653Z,11.70
2023-03-17T01:30:52.522Z,10.50
2023-03-17T01:33:21.094Z,10.60
2023-03-17T01:35:50.613Z,10.70
2023-03-17T01:38:19.409Z,10.80
2023-03-17T01:40:50.738Z,10.80
2023-03-17T01:43:31.499Z,10.60
2023-03-17T01:46:15.455Z,10.60
2023-03-17T01:48:51.595Z,11.50
2023-03-17T01:51:50.261Z,10.20
2023-03-17T01:54:30.049Z,10.40
2023-03-17T01:57:04.136Z,10.60
2023-03-17T01:59:35.577Z,11.90
2023-03-17T02:02:07.754Z,9.70
2023-03-17T02:04:39.319Z,10.60
2023-03-17T02:07:08.040Z,11.40
2023-03-17T02:09:40.291Z,9.70
2023-03-17T02:12:09.665Z,9.90
2023-03-17T02:14:38.091Z,11.00
2023-03-17T02:17:09.026Z,10.10
2023-03-17T02:19:39.376Z,10.20
2023-03-17T02:22:08.461Z,9.50
2023-03-17T02:24:39.970Z,11.30
2023-03-17T02:27:34.064Z,11.80
2023-03-17T02:30:04.606Z,10.20
2023-03-17T02:32:36.084Z,10.70
2023-03-17T02:35:05.915Z,8.80
2023-03-17T02:37:34.807Z,9.60
2023-03-17T02:40:06.102Z,10.70
2023-03-17T02:42:35.943Z,10.30
2023-03-17T02:45:06.555Z,8.90
2023-03-17T02:47:42.901Z,9.70
2023-03-17T02:50:23.454Z,10.70
2023-03-17T02:52:51.925Z,10.60
2023-03-17T02:55:21.114Z,9.80
2023-03-17T02:57:49.680Z,10.00
2023-03-17T03:00:21.920Z,10.20
2023-03-17T03:02:50.798Z,11.70
2023-03-17T03:05:25.128Z,13.80
2023-03-17T03:07:53.880Z,14.30
2023-03-17T03:10:22.302Z,19.80
2023-03-17T03:12:53.530Z,21.20
2023-03-17T03:15:23.423Z,23.50
2023-03-17T03:17:52.149Z,19.80
2023-03-17T03:20:22.200Z,18.30
2023-03-17T03:22:51.018Z,24.20
2023-03-17T03:25:19.501Z,24.90
2023-03-17T03:27:49.063Z,20.60
2023-03-17T03:30:17.615Z,16.70
2023-03-17T03:32:48.119Z,19.30
2023-03-17T03:35:17.122Z,18.90
2023-03-17T03:37:50.407Z,22.80
2023-03-17T03:40:18.927Z,21.90
2023-03-17T03:42:47.531Z,18.90
2023-03-17T03:45:16.495Z,17.80
2023-03-17T03:47:44.991Z,26.40
2023-03-17T03:50:16.440Z,48.30
2023-03-17T03:52:46.919Z,90.30
2023-03-17T03:55:15.610Z,65.60
2023-03-17T03:57:44.991Z,80.60
2023-03-17T04:00:15.396Z,69.30
2023-03-17T04:02:47.240Z,31.20
2023-03-17T04:05:17.624Z,20.60
2023-03-17T04:07:48.107Z,14.80
2023-03-17T04:10:16.723Z,13.30
2023-03-17T04:12:47.038Z,12.70
2023-03-17T04:15:19.857Z,11.80
2023-03-17T04:17:48.539Z,11.80
2023-03-17T04:20:17.343Z,11.30
2023-03-17T04:22:47.365Z,11.90
2023-03-17T04:25:15.988Z,10.70
2023-03-17T04:27:44.504Z,11.70
2023-03-17T04:30:17.192Z,11.60
2023-03-17T04:35:18.298Z,15.70
2023-03-17T04:37:49.517Z,14.90
2023-03-17T04:40:24.221Z,12.50
2023-03-17T04:42:52.787Z,11.70
2023-03-17T04:45:21.799Z,12.20
2023-03-17T04:47:51.308Z,11.60
2023-03-17T04:50:20.096Z,11.60
2023-03-17T04:52:52.747Z,10.90
2023-03-17T04:55:21.640Z,14.30
2023-03-17T04:57:50.189Z,12.30
2023-03-17T05:00:19.951Z,11.40
2023-03-17T05:02:49.153Z,11.80
2023-03-17T05:05:19.325Z,9.90
2023-03-17T05:07:47.990Z,9.90
2023-03-17T05:10:16.964Z,10.00
2023-03-17T05:12:46.550Z,11.50
2023-03-17T05:15:16.185Z,10.60
2023-03-17T05:17:44.814Z,13.40
2023-03-17T05:20:13.703Z,11.70
2023-03-17T05:22:42.628Z,10.80
2023-03-17T05:25:17.269Z,10.00
2023-03-17T05:27:46.715Z,11.00
2023-03-17T05:30:15.930Z,11.10
2023-03-17T05:32:45.070Z,10.20
2023-03-17T05:35:13.594Z,11.50
2023-03-17T05:37:45.353Z,12.20
2023-03-17T05:40:14.896Z,14.50
2023-03-17T05:42:44.013Z,11.30
2023-03-17T05:45:13.412Z,11.20
2023-03-17T05:47:45.100Z,12.00
2023-03-17T05:50:14.283Z,11.70
2023-03-17T05:52:43.345Z,10.40
2023-03-17T05:55:12.427Z,15.60
2023-03-17T05:57:42.559Z,12.70
2023-03-17T06:00:12.862Z,20.00
2023-03-17T06:02:42.042Z,37.20
2023-03-17T06:05:10.714Z,23.50
2023-03-17T06:07:53.024Z,43.60
2023-03-17T06:10:25.819Z,19.60
2023-03-17T06:12:59.140Z,22.80
2023-03-17T06:15:29.131Z,26.30
2023-03-17T06:17:57.879Z,15.40
2023-03-17T06:20:28.367Z,14.20
2023-03-17T06:23:04.537Z,14.20
2023-03-17T06:25:36.065Z,16.60
2023-03-17T06:28:15.938Z,16.60
2023-03-17T06:30:44.493Z,19.40
2023-03-17T06:33:19.376Z,20.90
2023-03-17T06:35:48.522Z,18.00
2023-03-17T06:38:17.181Z,14.80
2023-03-17T06:40:51.085Z,14.50
2023-03-17T06:43:20.237Z,13.60
2023-03-17T06:45:49.003Z,40.20
2023-03-17T06:48:18.215Z,15.90
2023-03-17T06:50:48.026Z,16.10
2023-03-17T06:53:18.542Z,19.90
2023-03-17T06:55:47.458Z,18.70
2023-03-17T06:58:16.231Z,21.50
2023-03-17T07:00:45.789Z,30.60
2023-03-17T07:03:17.361Z,24.70
2023-03-17T07:05:49.875Z,21.30
2023-03-17T07:08:19.777Z,20.80
2023-03-17T07:10:49.354Z,23.10
2023-03-17T07:13:18.319Z,19.30
2023-03-17T07:15:48.500Z,18.60
2023-03-17T07:18:22.060Z,21.70
2023-03-17T07:20:50.980Z,20.20
2023-03-17T07:23:21.987Z,21.50
2023-03-17T07:25:51.079Z,20.20
2023-03-17T07:28:22.327Z,21.90
2023-03-17T07:31:02.326Z,21.30
2023-03-17T07:33:34.197Z,22.40
2023-03-17T07:36:05.698Z,22.80
2023-03-17T07:38:42.394Z,23.50
2023-03-17T07:41:15.780Z,20.00
2023-03-17T07:43:47.535Z,17.10
2023-03-17T07:46:18.514Z,23.80
2023-03-17T07:48:47.017Z,20.00
2023-03-17T07:51:17.457Z,16.70
2023-03-17T07:53:46.745Z,19.00
2023-03-17T07:56:15.693Z,23.80
2023-03-17T07:58:44.286Z,22.80
2023-03-17T08:01:21.629Z,22.20
2023-03-17T08:06:29.719Z,20.90
2023-03-17T08:09:02.041Z,21.50
2023-03-17T08:11:31.292Z,18.60
2023-03-17T08:14:01.871Z,22.70
2023-03-17T08:16:31.673Z,36.40
2023-03-17T08:19:04.229Z,25.40
2023-03-17T08:21:34.354Z,19.00
2023-03-17T08:24:05.558Z,19.10
2023-03-17T08:26:36.512Z,18.00
2023-03-17T08:29:10.155Z,16.70
2023-03-17T08:31:40.875Z,24.00
2023-03-17T08:34:10.067Z,18.00
2023-03-17T08:36:39.877Z,17.10
2023-03-17T08:39:10.809Z,15.60
2023-03-17T08:41:41.963Z,16.90
2023-03-17T08:44:15.018Z,19.40
2023-03-17T08:46:43.957Z,19.80
2023-03-17T08:49:13.859Z,26.50
2023-03-17T08:51:42.922Z,19.40
2023-03-17T08:54:13.492Z,15.30
2023-03-17T08:56:42.886Z,16.40
2023-03-17T08:59:11.328Z,15.70
2023-03-17T09:01:44.456Z,14.80
2023-03-17T09:04:13.294Z,16.00
2023-03-17T09:07:01.295Z,15.60
2023-03-17T09:09:34.791Z,16.50
2023-03-17T09:12:06.676Z,15.40
2023-03-17T09:14:43.356Z,14.00
2023-03-17T09:17:14.688Z,12.40
2023-03-17T09:19:43.881Z,15.20
2023-03-17T09:22:14.746Z,14.50
2023-03-17T09:24:44.345Z,11.70
2023-03-17T09:27:13.893Z,12.60
2023-03-17T09:29:43.040Z,13.50
2023-03-17T09:32:11.555Z,15.50
2023-03-17T09:34:42.249Z,16.00
2023-03-17T09:37:10.838Z,15.00
2023-03-17T09:39:40.610Z,14.60
2023-03-17T09:42:33.640Z,14.10
2023-03-17T09:45:32.736Z,16.10
2023-03-17T09:48:17.845Z,18.30
2023-03-17T09:50:56.009Z,17.40
2023-03-17T09:53:34.329Z,15.70
2023-03-17T09:56:42.891Z,16.40
2023-03-17T09:59:36.301Z,17.70
2023-03-17T10:02:18.899Z,20.40
2023-03-17T10:04:48.968Z,21.20
2023-03-17T10:07:22.964Z,27.40
2023-03-17T10:10:03.263Z,18.20
2023-03-17T10:13:13.188Z,19.10
2023-03-17T10:15:51.177Z,15.60
2023-03-17T10:18:20.066Z,20.40
2023-03-17T10:20:55.068Z,16.70
2023-03-17T10:23:30.282Z,16.90
2023-03-17T10:26:02.884Z,13.80
2023-03-17T10:28:34.807Z,14.20
2023-03-17T10:31:33.464Z,16.60
2023-03-17T10:34:17.781Z,17.70
2023-03-17T10:36:51.725Z,17.10
2023-03-17T10:39:23.941Z,15.10
2023-03-17T10:41:57.801Z,12.10
2023-03-17T10:44:39.650Z,13.30
2023-03-17T10:47:21.914Z,15.10
2023-03-17T10:49:52.855Z,12.70
2023-03-17T10:52:36.347Z,14.70
2023-03-17T10:55:06.291Z,13.10
2023-03-17T10:57:39.171Z,15.70
2023-03-17T11:00:18.252Z,19.50
2023-03-17T11:02:59.955Z,13.20
2023-03-17T11:05:30.843Z,14.40
2023-03-17T11:08:11.287Z,13.80
2023-03-17T11:10:41.872Z,11.80
2023-03-17T11:13:10.886Z,12.40
2023-03-17T11:16:05.490Z,12.50
2023-03-17T11:18:38.038Z,14.10
2023-03-17T11:21:06.664Z,14.30
2023-03-17T11:23:58.756Z,14.30
2023-03-17T11:26:43.612Z,14.20
2023-03-17T11:29:33.907Z,13.80
2023-03-17T11:32:25.497Z,13.60
2023-03-17T11:35:18.502Z,14.50
2023-03-17T11:38:24.639Z,14.60
2023-03-17T11:41:11.703Z,13.70
2023-03-17T11:44:03.636Z,12.60
2023-03-17T11:46:42.356Z,14.10
2023-03-17T11:49:36.254Z,14.40
2023-03-17T11:52:16.774Z,13.70
2023-03-17T11:54:54.364Z,13.40
2023-03-17T11:57:28.643Z,13.00
2023-03-17T12:00:04.821Z,13.40
2023-03-17T12:02:54.615Z,12.50
2023-03-17T12:05:27.761Z,16.40
2023-03-17T12:08:12.314Z,14.00
2023-03-17T12:10:45.545Z,13.60
2023-03-17T12:13:34.269Z,13.70
2023-03-17T12:16:04.549Z,12.70
2023-03-17T12:18:35.090Z,14.40
2023-03-17T12:21:14.906Z,13.50
2023-03-17T12:23:49.818Z,11.80
2023-03-17T12:26:20.549Z,13.20
2023-03-17T12:28:57.394Z,13.20
2023-03-17T12:31:29.306Z,12.10
2023-03-17T12:34:06.885Z,11.80
2023-03-17T12:36:37.408Z,11.60
2023-03-17T12:39:09.586Z,11.60
2023-03-17T12:41:41.797Z,10.50
2023-03-17T12:44:15.355Z,11.60
2023-03-17T12:47:04.811Z,11.40
2023-03-17T12:49:49.354Z,11.80
2023-03-17T12:52:37.959Z,15.50
2023-03-17T12:55:13.140Z,31.60
2023-03-17T12:57:46.720Z,13.70
2023-03-17T13:00:29.752Z,13.10
2023-03-17T13:03:13.861Z,13.70
2023-03-17T13:05:46.753Z,12.70
2023-03-17T13:08:39.946Z,12.90
2023-03-17T13:11:27.604Z,13.10
2023-03-17T13:14:06.462Z,13.70
2023-03-17T13:16:41.270Z,12.50
2023-03-17T13:19:27.239Z,13.70
2023-03-17T13:22:05.499Z,11.80
2023-03-17T13:24:47.261Z,12.20
2023-03-17T13:27:31.320Z,14.70
2023-03-17T13:30:01.910Z,13.10
2023-03-17T13:32:33.407Z,12.00
2023-03-17T13:35:01.907Z,12.60
2023-03-17T13:37:31.752Z,12.10
2023-03-17T13:40:19.852Z,13.10
2023-03-17T13:42:49.010Z,12.80
2023-03-17T13:45:38.701Z,12.50
2023-03-17T13:48:36.360Z,13.00
2023-03-17T13:51:14.995Z,13.00
2023-03-17T13:53:54.221Z,15.20
2023-03-17T13:56:26.565Z,13.00
2023-03-17T13:59:11.944Z,12.00
2023-03-17T14:01:48.301Z,11.50
2023-03-17T14:04:26.589Z,13.00
2023-03-17T14:06:58.095Z,11.80
2023-03-17T14:09:39.798Z,13.40
2023-03-17T14:12:17.872Z,16.10
2023-03-17T14:15:08.625Z,13.50
2023-03-17T14:18:08.512Z,13.10
2023-03-17T14:20:37.565Z,12.10
2023-03-17T14:23:06.807Z,12.90
2023-03-17T14:25:38.467Z,12.90
2023-03-17T14:28:11.187Z,11.10
2023-03-17T14:30:40.055Z,11.60
2023-03-17T14:33:12.299Z,11.80
2023-03-17T14:35:43.546Z,11.80
2023-03-17T14:38:23.100Z,9.90
2023-03-17T14:41:01.410Z,11.20
2023-03-17T14:43:30.491Z,10.90
2023-03-17T14:46:32.242Z,10.40
2023-03-17T14:49:24.704Z,11.00
2023-03-17T14:51:53.929Z,10.40
2023-03-17T14:54:25.665Z,13.00
2023-03-17T14:57:02.272Z,11.40
2023-03-17T14:59:34.090Z,10.50
2023-03-17T15:02:32.499Z,9.60
2023-03-17T15:05:28.772Z,10.50
2023-03-17T15:07:57.571Z,10.00
2023-03-17T15:10:31.397Z,10.10
2023-03-17T15:13:01.921Z,8.40
2023-03-17T15:15:38.245Z,7.90
2023-03-17T15:18:16.800Z,9.60
2023-03-17T15:20:46.093Z,10.20
2023-03-17T15:23:18.977Z,11.10
2023-03-17T15:25:51.464Z,10.20
2023-03-17T15:28:20.967Z,9.70
2023-03-17T15:30:53.297Z,8.60
2023-03-17T15:33:28.941Z,8.00
2023-03-17T15:36:00.353Z,8.10
2023-03-17T15:38:29.469Z,7.00
2023-03-17T15:40:58.203Z,6.10
2023-03-17T15:43:27.686Z,6.90
2023-03-17T15:46:04.535Z,6.40
2023-03-17T15:48:36.453Z,5.90
2023-03-17T15:51:05.657Z,5.70
2023-03-17T15:53:34.889Z,6.60
2023-03-17T15:56:04.897Z,6.60
2023-03-17T15:58:33.672Z,6.80
2023-03-17T16:01:03.829Z,6.10
2023-03-17T16:03:37.202Z,5.60
2023-03-17T16:06:07.566Z,6.10
2023-03-17T16:08:37.815Z,6.90
2023-03-17T16:11:08.047Z,6.10
2023-03-17T16:13:37.841Z,6.90
2023-03-17T16:16:07.326Z,7.10
2023-03-17T16:18:37.865Z,7.00
2023-03-17T16:21:11.796Z,9.10
2023-03-17T16:23:40.432Z,11.10
2023-03-17T16:26:15.592Z,10.60
2023-03-17T16:28:46.415Z,11.90
2023-03-17T16:31:25.871Z,8.70
2023-03-17T16:33:54.841Z,9.10
2023-03-17T16:36:24.042Z,8.10
2023-03-17T16:38:52.607Z,9.00
2023-03-17T16:41:23.145Z,8.00
2023-03-17T16:43:59.534Z,8.40
2023-03-17T16:46:34.881Z,8.30
2023-03-17T16:49:07.342Z,8.90
2023-03-17T16:51:36.054Z,7.90
2023-03-17T16:54:06.860Z,9.80
2023-03-17T16:56:35.606Z,10.70
2023-03-17T16:59:10.284Z,10.90
2023-03-17T17:01:38.776Z,10.20
2023-03-17T17:04:11.061Z,10.30
2023-03-17T17:06:41.798Z,9.60
2023-03-17T17:09:10.454Z,10.40
2023-03-17T17:11:38.918Z,10.20
2023-03-17T17:14:08.222Z,9.90
2023-03-17T17:16:40.041Z,9.40
2023-03-17T17:19:17.983Z,11.00
2023-03-17T17:21:46.942Z,9.60
2023-03-17T17:24:16.028Z,10.50
2023-03-17T17:26:44.992Z,12.00
2023-03-17T17:29:14.852Z,10.20
2023-03-17T17:31:43.233Z,12.70
2023-03-17T17:34:12.081Z,11.20
2023-03-17T17:36:40.950Z,11.90
2023-03-17T17:39:14.567Z,11.70
2023-03-17T17:41:45.190Z,11.40
2023-03-17T17:44:14.206Z,11.70
2023-03-17T17:46:43.689Z,12.80
2023-03-17T17:49:12.517Z,10.70
2023-03-17T17:51:41.349Z,13.10
2023-03-17T17:54:12.437Z,11.60
2023-03-17T17:56:46.957Z,12.70
2023-03-17T17:59:15.866Z,12.20
2023-03-17T18:01:44.536Z,12.30
2023-03-17T18:04:20.442Z,12.30
2023-03-17T18:06:49.335Z,11.10
2023-03-17T18:09:21.838Z,12.40
2023-03-17T18:11:50.240Z,11.80
2023-03-17T18:14:18.631Z,11.40
2023-03-17T18:16:47.079Z,10.00
2023-03-17T18:19:16.076Z,10.70
2023-03-17T18:21:46.405Z,10.60
2023-03-17T18:24:21.082Z,12.00
2023-03-17T18:26:49.997Z,11.30
2023-03-17T18:29:18.615Z,12.40
2023-03-17T18:31:51.786Z,12.40
2023-03-17T18:34:26.316Z,14.20
2023-03-17T18:37:00.022Z,15.10
2023-03-17T18:39:28.813Z,13.70
2023-03-17T18:41:57.376Z,12.40
2023-03-17T18:44:26.359Z,14.00
2023-03-17T18:46:54.859Z,13.60
2023-03-17T18:49:28.458Z,15.40
2023-03-17T18:51:57.211Z,14.30
2023-03-17T18:54:26.779Z,14.80
2023-03-17T18:56:56.666Z,16.00
2023-03-17T18:59:25.779Z,13.70
2023-03-17T19:02:00.040Z,14.50
2023-03-17T19:04:29.052Z,15.40
2023-03-17T19:06:57.885Z,14.60
2023-03-17T19:09:27.360Z,14.70
2023-03-17T19:11:56.720Z,16.00
2023-03-17T19:14:25.239Z,15.40
2023-03-17T19:16:54.902Z,16.40
2023-03-17T19:19:24.452Z,15.30
2023-03-17T19:21:52.998Z,16.70
2023-03-17T19:24:21.726Z,15.00
2023-03-17T19:26:50.436Z,17.10
2023-03-17T19:29:22.712Z,15.60
2023-03-17T19:31:51.232Z,17.10
2023-03-17T19:34:19.602Z,15.80
2023-03-17T19:36:48.474Z,15.50
2023-03-17T19:39:17.168Z,17.20
2023-03-17T19:41:47.754Z,17.40
2023-03-17T19:44:16.431Z,15.20
2023-03-17T19:46:44.835Z,16.00
2023-03-17T19:49:13.276Z,15.60
2023-03-17T19:51:42.158Z,14.70
2023-03-17T19:54:12.263Z,15.60
2023-03-17T19:56:42.846Z,14.80
2023-03-17T19:59:11.313Z,14.10
2023-03-17T20:01:41.020Z,14.60
2023-03-17T20:04:11.704Z,14.40
2023-03-17T20:06:40.313Z,15.80
2023-03-17T20:09:09.333Z,16.00
2023-03-17T20:11:37.771Z,14.80
2023-03-17T20:14:08.885Z,16.20
2023-03-17T20:16:37.714Z,14.40
2023-03-17T20:19:07.771Z,14.90
2023-03-17T20:21:39.294Z,14.30
2023-03-17T20:24:08.913Z,15.00
2023-03-17T20:26:43.591Z,15.10
2023-03-17T20:29:14.536Z,14.50
2023-03-17T20:31:43.033Z,15.00
2023-03-17T20:34:11.978Z,13.90
2023-03-17T20:36:43.203Z,14.20
2023-03-17T20:39:15.085Z,14.60
2023-03-17T20:41:44.119Z,12.70
2023-03-17T20:44:12.862Z,12.70
2023-03-17T20:46:42.706Z,12.90
2023-03-17T20:49:12.269Z,12.60
2023-03-17T20:51:44.259Z,11.50
2023-03-17T20:54:13.121Z,12.00
2023-03-17T20:56:41.764Z,12.10
2023-03-17T20:59:11.408Z,13.20
2023-03-17T21:01:40.729Z,11.40
2023-03-17T21:04:10.710Z,12.20
2023-03-17T21:06:42.295Z,13.60
2023-03-17T21:09:11.017Z,12.00
2023-03-17T21:11:41.306Z,12.60
2023-03-17T21:14:13.032Z,12.60
2023-03-17T21:16:45.331Z,12.90
2023-03-17T21:19:19.993Z,13.90
2023-03-17T21:21:48.619Z,13.60
2023-03-17T21:24:31.437Z,11.60
2023-03-17T21:27:01.163Z,12.00
2023-03-17T21:29:30.988Z,12.40
2023-03-17T21:32:07.548Z,12.00
2023-03-17T21:34:37.125Z,11.70
2023-03-17T21:37:05.618Z,11.50
2023-03-17T21:39:36.455Z,12.50
2023-03-17T21:42:05.469Z,11.70
2023-03-17T21:44:38.625Z,11.70
2023-03-17T21:47:08.076Z,12.30
2023-03-17T21:49:36.694Z,11.20
2023-03-17T21:52:06.257Z,10.60
2023-03-17T21:54:35.352Z,11.20
2023-03-17T21:57:05.804Z,10.70
2023-03-17T21:59:37.207Z,11.50
2023-03-17T22:02:05.884Z,12.40
2023-03-17T22:04:36.619Z,11.80
2023-03-17T22:07:05.365Z,11.40
2023-03-17T22:09:37.926Z,11.10
2023-03-17T22:12:08.162Z,11.60
2023-03-17T22:14:36.619Z,11.30
2023-03-17T22:17:06.597Z,12.80
2023-03-17T22:19:35.498Z,13.80
2023-03-17T22:22:08.594Z,12.20
2023-03-17T22:24:41.159Z,12.90
2023-03-17T22:27:09.723Z,12.20
2023-03-17T22:29:39.360Z,12.60
2023-03-17T22:32:08.492Z,12.10
2023-03-17T22:34:37.673Z,12.50
2023-03-17T22:37:07.450Z,13.20
2023-03-17T22:39:35.954Z,12.40
2023-03-17T22:42:06.201Z,12.20
2023-03-17T22:44:35.880Z,12.10
2023-03-17T22:47:04.602Z,11.90
2023-03-17T22:49:34.076Z,11.70
2023-03-17T22:52:02.738Z,12.10
2023-03-17T22:54:31.405Z,12.10
2023-03-17T22:56:59.905Z,10.60
2023-03-17T22:59:32.119Z,12.00
2023-03-17T23:02:01.173Z,11.40
2023-03-17T23:04:30.265Z,10.80
2023-03-17T23:06:59.546Z,12.80
2023-03-17T23:09:28.207Z,11.80
2023-03-17T23:12:01.475Z,12.00
2023-03-17T23:14:31.915Z,11.70
2023-03-17T23:17:00.306Z,12.60
2023-03-17T23:19:30.224Z,13.60
2023-03-17T23:21:59.250Z,12.40
2023-03-17T23:24:27.608Z,13.90
2023-03-17T23:26:58.089Z,12.20
2023-03-17T23:29:27.997Z,11.80
2023-03-17T23:32:00.988Z,12.60
2023-03-17T23:34:29.992Z,13.00
2023-03-17T23:36:58.481Z,13.00
2023-03-17T23:39:26.910Z,12.80
2023-03-17T23:41:55.745Z,11.80
2023-03-17T23:44:27.413Z,11.80
2023-03-17T23:46:56.374Z,11.10
2023-03-17T23:49:24.962Z,10.40
2023-03-17T23:51:54.657Z,10.30
2023-03-17T23:54:23.668Z,11.50
2023-03-17T23:56:54.404Z,11.20
2023-03-17T23:59:23.629Z,10.40
